Terminal Aerodrome Forecast
Issued by NWS

Home | Current Version | Previous Version | Text Only | Print | Product List | Glossary On
Versions: 1 2 3 4 5 6 7 8 9 10 11 12 13 14 15 16
000
FTUS43 KICT 071700
TAFCNU
TAF
KCNU 071734Z 0718/0818 20014KT P6SM VCSH BKN150
      TEMPO 0718/0719 -SHRA
     FM071900 20014G20KT P6SM SCT250
     FM080500 22009KT P6SM SCT100
     FM081300 02015G22KT P6SM BKN150=

USA.gov is the U.S. government's official web portal to all federal, state and local government web resources and services.